Bei Facebook empfehlenBei Twitter postenGoogle plusPinterest

Das Wetter im Erzgebirge am 04.05.2017

Wetter und Klima am 04.05.2017 Holzhau im Erzgebirge (630m ü.NN)
Letzte gemessene Temperatur und Uhrzeit der Messung23:45:00 Uhr6.10 °C
Temperatur (Maximum / Höchstwert) und Uhrzeit der Messung14:30:00 Uhr12.30 °C
Temperatur (Minimum / Tiefstwert) und Uhrzeit der Messung23:45:006.10 °C
Errechneter Absolutwert der Temperaturschwankungen zwischen Tmin und Tmax des Tages6.20 K
Errechnete Tagesmitteltemperatur8.12917 °C
Gesamt - Niederschlag des Tages (in flüssiger Form)1.03 Liter / m²
Luftdruck (Maximum / Höchstwert) und Zeitpunkt der Messung00:00:00 Uhr1013.60 hPa
Luftdruck (Minimum / Tiefstwert) und Zeitpunkt der Messung17:00:00 Uhr1010.60 hPa
Errechneter Absolutwert der Luftdruckschwankungen des Tages3.00 hPa
Höchste gemessene Windgeschwindigkeit und Uhrzeit der Messung15:15:00 Uhr6.12 km/h
Errechnete Windhäufigkeit in Relation zu den Messwerten des Tages7.29167 %
Niedrigste Windkühle (Windchill) und Zeitpunkt der Messung23:45:00 Uhr6.10 °C
Taupunkt (Maximum / Höchstwert) und Uhrzeit der Messung12:15:00 Uhr8.30 °C
Taupunkt (Minimum / Tiefstwert) und Uhrzeit der Messung23:15:004.60 °C
Anzahl der automatisch eingelesenen Messwerte 96

Detaillierte Wetter- und Klima- Messwerte für den 04.05.2017 in Holzhau im Erzgebirge (630m ü.NN)
ZeitTemperaturLuftdruckRel. LuftfeuchteWindWindrichtungWindchillTaupunktNiederschlag l/m²
23:45:006.10 °C1012.00 hPa91.00 %4.70 °C1.03
23:30:006.10 °C1012.10 hPa91.00 %4.70 °C1.03
23:15:006.10 °C1011.90 hPa90.00 %4.60 °C1.03
23:00:006.10 °C1011.90 hPa90.00 %4.60 °C1.03
22:45:006.10 °C1011.90 hPa90.00 %4.60 °C1.03
22:30:006.10 °C1011.80 hPa90.00 %4.60 °C1.03
22:15:006.10 °C1011.90 hPa90.00 %4.60 °C1.03
22:00:006.10 °C1011.90 hPa90.00 %4.60 °C1.03
21:45:006.10 °C1011.70 hPa90.00 %4.60 °C1.03
21:30:006.10 °C1011.70 hPa90.00 %4.60 °C1.03
21:15:006.10 °C1011.70 hPa90.00 %4.60 °C1.03
21:00:006.20 °C1011.60 hPa90.00 %4.70 °C1.03
20:45:006.30 °C1011.60 hPa90.00 %4.80 °C1.03
20:30:006.30 °C1011.50 hPa90.00 %4.80 °C1.03
20:15:006.50 °C1011.30 hPa90.00 %5.00 °C1.03
20:00:006.60 °C1011.10 hPa90.00 %5.10 °C1.03
19:45:006.80 °C1011.10 hPa90.00 %5.30 °C1.03
19:30:006.90 °C1011.10 hPa90.00 %5.40 °C1.03
19:15:006.90 °C1010.70 hPa89.00 %5.20 °C1.03
19:00:006.90 °C1010.70 hPa89.00 %5.20 °C1.03
18:45:007.10 °C1010.70 hPa88.00 %5.30 °C1.03
18:30:007.30 °C1010.70 hPa88.00 %1.08 km/hWNW7.30 °C5.40 °C1.03
18:15:007.30 °C1010.70 hPa88.00 %5.40 °C1.03
18:00:007.60 °C1010.80 hPa86.00 %5.40 °C1.03
17:45:007.90 °C1010.80 hPa86.00 %5.70 °C1.03
17:30:008.00 °C1010.70 hPa86.00 %5.80 °C1.03
17:15:008.10 °C1010.70 hPa85.00 %5.70 °C1.03
17:00:008.60 °C1010.60 hPa84.00 %6.10 °C1.03
16:45:008.90 °C1010.70 hPa83.00 %6.20 °C1.03
16:30:009.10 °C1010.60 hPa81.00 %6.00 °C1.03
16:15:009.30 °C1010.90 hPa81.00 %6.20 °C1.03
16:00:009.60 °C1010.60 hPa81.00 %6.50 °C1.03
15:45:009.80 °C1010.80 hPa80.00 %6.50 °C1.03
15:30:009.80 °C1010.80 hPa79.00 %6.30 °C1.03
15:15:0010.50 °C1011.10 hPa77.00 %6.12 km/hWNW10.00 °C6.60 °C1.03
15:00:0011.60 °C1010.80 hPa74.00 %7.10 °C1.03
14:45:0011.90 °C1010.90 hPa76.00 %7.80 °C1.03
14:30:0012.30 °C1011.00 hPa75.00 %8.00 °C1.03
14:15:0012.10 °C1011.20 hPa76.00 %5.76 km/hSO11.90 °C8.00 °C1.03
14:00:0011.60 °C1011.40 hPa78.00 %5.04 km/hNNW11.60 °C7.90 °C1.03
13:45:0011.80 °C1011.30 hPa78.00 %8.10 °C1.03
13:30:0011.20 °C1011.30 hPa80.00 %1.44 km/hWNW11.20 °C7.90 °C1.03
13:15:0010.90 °C1011.50 hPa79.00 %7.40 °C1.03
13:00:0011.30 °C1011.60 hPa78.00 %7.60 °C1.03
12:45:0010.90 °C1011.50 hPa80.00 %7.60 °C1.03
12:30:0010.90 °C1011.60 hPa79.00 %7.40 °C1.03
12:15:0011.40 °C1011.50 hPa81.00 %8.30 °C1.03
12:00:0010.60 °C1011.60 hPa83.00 %7.80 °C1.03
11:45:0010.40 °C1011.30 hPa83.00 %7.60 °C1.03
11:30:0010.30 °C1011.30 hPa85.00 %7.90 °C1.03
11:15:009.80 °C1011.50 hPa86.00 %7.60 °C1.03
11:00:009.20 °C1011.30 hPa87.00 %7.20 °C1.03
10:45:008.90 °C1011.60 hPa88.00 %7.00 °C1.03
10:30:008.80 °C1011.70 hPa88.00 %6.90 °C1.03
10:15:008.80 °C1011.70 hPa88.00 %2.88 km/hNW8.80 °C6.90 °C1.03
10:00:008.90 °C1011.60 hPa88.00 %7.00 °C1.03
09:45:008.80 °C1011.70 hPa88.00 %6.90 °C1.03
09:30:008.80 °C1011.80 hPa87.00 %6.80 °C1.03
09:15:008.90 °C1011.80 hPa89.00 %7.20 °C1.03
09:00:009.00 °C1011.70 hPa91.00 %7.60 °C1.03
08:45:008.60 °C1011.90 hPa92.00 %7.40 °C1.03
08:30:008.10 °C1012.00 hPa93.00 %7.00 °C1.03
08:15:007.90 °C1011.90 hPa93.00 %6.80 °C1.03
08:00:007.90 °C1011.60 hPa93.00 %6.80 °C1.03
07:45:007.50 °C1011.70 hPa93.00 %6.40 °C1.03
07:30:007.30 °C1011.70 hPa93.00 %6.20 °C1.03
07:15:007.30 °C1011.70 hPa93.00 %6.20 °C1.03
07:00:007.30 °C1011.90 hPa93.00 %6.20 °C1.03
06:45:007.20 °C1011.90 hPa92.00 %6.00 °C1.03
06:30:007.00 °C1012.00 hPa92.00 %5.80 °C1.03
06:15:006.80 °C1011.90 hPa92.00 %5.60 °C1.03
06:00:006.60 °C1011.90 hPa92.00 %5.40 °C1.03
05:45:006.50 °C1012.00 hPa92.00 %5.30 °C1.03
05:30:006.40 °C1012.00 hPa92.00 %5.20 °C1.03
05:15:006.50 °C1011.80 hPa91.00 %5.10 °C1.03
05:00:006.70 °C1011.80 hPa92.00 %5.50 °C1.03
04:45:006.80 °C1012.00 hPa91.00 %5.40 °C1.03
04:30:006.90 °C1012.10 hPa91.00 %5.50 °C1.03
04:15:007.10 °C1012.20 hPa91.00 %5.70 °C1.03
04:00:007.10 °C1012.10 hPa91.00 %5.70 °C1.03
03:45:007.20 °C1012.20 hPa91.00 %5.80 °C1.03
03:30:007.20 °C1012.40 hPa91.00 %5.80 °C1.03
03:15:007.30 °C1012.40 hPa91.00 %5.90 °C1.03
03:00:007.40 °C1012.50 hPa90.00 %5.90 °C1.03
02:45:007.60 °C1012.60 hPa91.00 %6.20 °C1.03
02:30:007.60 °C1012.70 hPa91.00 %6.20 °C1.03
02:15:007.60 °C1012.80 hPa91.00 %6.20 °C1.03
02:00:007.60 °C1013.00 hPa91.00 %6.20 °C1.03
01:45:007.60 °C1013.10 hPa90.00 %6.10 °C1.03
01:30:007.70 °C1013.10 hPa90.00 %6.20 °C1.03
01:15:007.80 °C1013.30 hPa90.00 %6.30 °C1.03
01:00:007.80 °C1013.30 hPa89.00 %4.32 km/hSSO7.80 °C6.10 °C0.51
00:45:007.80 °C1013.40 hPa89.00 %6.10 °C0.51
00:30:007.90 °C1013.40 hPa88.00 %6.00 °C0.51
00:15:008.10 °C1013.30 hPa88.00 %6.20 °C0.51
00:00:008.20 °C1013.60 hPa87.00 %6.20 °C 

Permanenter Link zu dieser Seite: Wetter im Erzgebirge am 04.05.2017
Performance-Info: Die Erstellung der Seite / Statistik(en) / Tabelle(n) erforderte 5 Datenbankserver-Abfrage(n) und dauerte 101 Millisekunden. (Dieser Messwert ist von der Gesamt-Auslastung des Servers abhängig.)
Erzgebirge - Wetter | Erzgebirge - Wetter (Mobilgeräte) | Komplette Klimadatenbank